createdAt,value
2022-12-15T00:00:24.679Z,3.31
2022-12-15T00:03:31.404Z,3.31
2022-12-15T00:06:19.792Z,3.31
2022-12-15T00:09:09.821Z,3.28
2022-12-15T00:12:00.375Z,3.24
2022-12-15T00:14:47.524Z,3.29
2022-12-15T00:17:34.560Z,3.31
2022-12-15T00:20:22.138Z,3.30
2022-12-15T00:23:08.738Z,3.27
2022-12-15T00:25:55.382Z,3.29
2022-12-15T00:28:41.951Z,3.31
2022-12-15T00:31:28.614Z,3.32
2022-12-15T00:34:14.855Z,3.35
2022-12-15T00:37:01.626Z,3.39
2022-12-15T00:39:29.668Z,3.42
2022-12-15T00:41:57.807Z,3.42
2022-12-15T00:44:25.690Z,3.38
2022-12-15T00:46:56.646Z,3.33
2022-12-15T00:49:45.196Z,3.31
2022-12-15T00:52:33.419Z,3.32
2022-12-15T00:55:20.247Z,3.35
2022-12-15T00:58:06.925Z,3.38
2022-12-15T01:00:53.234Z,3.37
2022-12-15T01:03:42.198Z,3.38
2022-12-15T01:06:35.374Z,3.37
2022-12-15T01:09:25.058Z,3.37
2022-12-15T01:12:11.929Z,3.37
2022-12-15T01:14:58.283Z,3.36
2022-12-15T01:17:44.873Z,3.32
2022-12-15T01:20:18.064Z,3.32
2022-12-15T01:22:53.051Z,3.31
2022-12-15T01:25:24.315Z,3.32
2022-12-15T01:27:52.788Z,3.35
2022-12-15T01:30:26.785Z,3.35
2022-12-15T01:32:54.777Z,3.35
2022-12-15T01:35:22.886Z,3.32
2022-12-15T01:37:50.861Z,3.28
2022-12-15T01:40:39.366Z,3.21
2022-12-15T01:43:14.165Z,3.16
2022-12-15T01:45:52.498Z,3.11
2022-12-15T01:48:29.803Z,3.08
2022-12-15T01:51:06.723Z,3.08
2022-12-15T01:53:57.338Z,3.12
2022-12-15T01:56:30.072Z,3.16
2022-12-15T01:59:05.118Z,3.19
2022-12-15T02:01:33.181Z,3.23
2022-12-15T02:04:01.115Z,3.24
2022-12-15T02:06:29.954Z,3.22
2022-12-15T02:09:00.831Z,3.21
2022-12-15T02:12:07.047Z,3.21
2022-12-15T02:14:46.920Z,3.21
2022-12-15T02:17:21.009Z,3.23
2022-12-15T02:20:23.311Z,3.27
2022-12-15T02:23:09.574Z,3.32
2022-12-15T02:25:58.757Z,3.37
2022-12-15T02:28:52.205Z,3.43
2022-12-15T02:31:51.445Z,3.46
2022-12-15T02:34:27.702Z,3.49
2022-12-15T02:37:08.948Z,3.49
2022-12-15T02:39:37.168Z,3.46
2022-12-15T02:42:05.119Z,3.43
2022-12-15T02:45:05.628Z,3.43
2022-12-15T02:48:12.209Z,3.46
2022-12-15T02:50:51.020Z,3.50
2022-12-15T02:53:28.790Z,3.55
2022-12-15T02:56:18.370Z,3.57
2022-12-15T02:59:01.863Z,3.58
2022-12-15T03:01:36.861Z,3.57
2022-12-15T03:04:09.263Z,3.54
2022-12-15T03:06:37.795Z,3.52
2022-12-15T03:09:05.989Z,3.48
2022-12-15T03:11:34.573Z,3.44
2022-12-15T03:14:02.702Z,3.42
2022-12-15T03:16:30.627Z,3.39
2022-12-15T03:18:58.530Z,3.43
2022-12-15T03:21:27.941Z,3.45
2022-12-15T03:23:56.110Z,3.45
2022-12-15T03:26:24.618Z,3.46
2022-12-15T03:28:52.993Z,3.47
2022-12-15T03:31:21.000Z,3.48
2022-12-15T03:33:48.890Z,3.51
2022-12-15T03:36:16.706Z,3.55
2022-12-15T03:38:44.689Z,3.58
2022-12-15T03:41:12.564Z,3.59
2022-12-15T03:43:40.575Z,3.59
2022-12-15T03:46:08.814Z,3.60
2022-12-15T03:48:37.109Z,3.60
2022-12-15T03:51:04.987Z,3.59
2022-12-15T03:53:33.046Z,3.62
2022-12-15T03:56:01.376Z,3.66
2022-12-15T03:58:30.220Z,3.68
2022-12-15T04:00:58.798Z,3.67
2022-12-15T04:03:26.990Z,3.67
2022-12-15T04:05:55.274Z,3.67
2022-12-15T04:08:26.724Z,3.67
2022-12-15T04:10:55.009Z,3.68
2022-12-15T04:13:22.912Z,3.67
2022-12-15T04:15:50.826Z,3.68
2022-12-15T04:18:18.800Z,3.73
2022-12-15T04:20:46.991Z,3.77
2022-12-15T04:23:18.315Z,3.80
2022-12-15T04:26:04.898Z,3.81
2022-12-15T04:28:51.742Z,3.83
2022-12-15T04:31:56.509Z,3.82
2022-12-15T04:34:43.151Z,3.78
2022-12-15T04:37:32.343Z,3.76
2022-12-15T04:40:18.773Z,3.74
2022-12-15T04:43:06.939Z,3.75
2022-12-15T04:45:53.456Z,3.76
2022-12-15T04:48:40.052Z,3.78
2022-12-15T04:51:26.132Z,3.77
2022-12-15T04:54:12.222Z,3.75
2022-12-15T04:56:58.390Z,3.72
2022-12-15T04:59:45.329Z,3.69
2022-12-15T05:02:31.984Z,3.67
2022-12-15T05:05:18.820Z,3.68
2022-12-15T05:08:05.568Z,3.70
2022-12-15T05:10:52.290Z,3.72
2022-12-15T05:13:38.649Z,3.68
2022-12-15T05:16:25.416Z,3.62
2022-12-15T05:19:11.785Z,3.55
2022-12-15T05:21:58.289Z,3.51
2022-12-15T05:24:45.600Z,3.52
2022-12-15T05:27:31.801Z,3.45
2022-12-15T05:30:18.276Z,3.41
2022-12-15T05:32:46.604Z,3.49
2022-12-15T05:35:18.104Z,3.67
2022-12-15T05:37:46.078Z,4.25
2022-12-15T05:40:13.987Z,4.35
2022-12-15T05:42:41.989Z,4.23
2022-12-15T05:45:10.476Z,4.12
2022-12-15T05:47:38.512Z,4.01
2022-12-15T05:50:07.065Z,3.91
2022-12-15T05:52:35.631Z,3.80
2022-12-15T05:55:03.939Z,3.72
2022-12-15T05:57:32.248Z,3.65
2022-12-15T06:00:00.345Z,3.60
2022-12-15T06:02:31.192Z,3.58
2022-12-15T06:04:59.953Z,3.56
2022-12-15T06:07:27.938Z,3.53
2022-12-15T06:09:55.798Z,3.51
2022-12-15T06:12:23.949Z,3.49
2022-12-15T06:14:52.278Z,3.46
2022-12-15T06:17:20.248Z,3.45
2022-12-15T06:19:48.232Z,3.46
2022-12-15T06:22:16.261Z,3.47
2022-12-15T06:24:44.290Z,3.51
2022-12-15T06:27:12.577Z,3.55
2022-12-15T06:29:40.500Z,3.54
2022-12-15T06:32:08.510Z,3.53
2022-12-15T06:34:37.279Z,3.53
2022-12-15T06:37:05.343Z,3.51
2022-12-15T06:39:33.244Z,3.50
2022-12-15T06:42:01.416Z,3.49
2022-12-15T06:44:29.260Z,3.47
2022-12-15T06:46:57.317Z,3.47
2022-12-15T06:49:25.301Z,3.48
2022-12-15T06:51:53.202Z,3.50
2022-12-15T06:54:21.154Z,3.51
2022-12-15T06:56:49.916Z,3.45
2022-12-15T06:59:18.116Z,3.44
2022-12-15T07:01:46.329Z,3.43
2022-12-15T07:04:15.251Z,3.41
2022-12-15T07:06:43.389Z,3.40
2022-12-15T07:09:16.357Z,3.41
2022-12-15T07:11:45.405Z,3.46
2022-12-15T07:14:13.419Z,3.51
2022-12-15T07:16:41.439Z,3.56
2022-12-15T07:19:13.646Z,3.60
2022-12-15T07:21:41.686Z,3.64
2022-12-15T07:24:12.014Z,3.67
2022-12-15T07:26:41.315Z,3.66
2022-12-15T07:29:11.806Z,3.65
2022-12-15T07:31:40.169Z,3.63
2022-12-15T07:34:08.124Z,3.65
2022-12-15T07:36:36.181Z,3.70
2022-12-15T07:39:05.407Z,3.73
2022-12-15T07:41:33.724Z,3.78
2022-12-15T07:44:02.545Z,3.80
2022-12-15T07:46:30.737Z,3.81
2022-12-15T07:48:58.945Z,3.83
2022-12-15T07:51:27.807Z,3.84
2022-12-15T07:53:56.229Z,3.82
2022-12-15T07:56:24.581Z,3.79
2022-12-15T07:58:52.848Z,3.78
2022-12-15T08:01:20.826Z,3.79
2022-12-15T08:03:49.308Z,3.81
2022-12-15T08:06:17.696Z,3.84
2022-12-15T08:08:50.802Z,3.89
2022-12-15T08:11:22.220Z,3.95
2022-12-15T08:14:10.669Z,3.97
2022-12-15T08:16:39.834Z,3.97
2022-12-15T08:19:13.795Z,3.94
2022-12-15T08:21:43.331Z,3.94
2022-12-15T08:24:12.154Z,3.95
2022-12-15T08:26:41.897Z,3.96
2022-12-15T08:29:49.579Z,3.95
2022-12-15T08:32:06.032Z,3.97
2022-12-15T08:34:34.256Z,3.99
2022-12-15T08:37:02.214Z,4.01
2022-12-15T08:39:30.420Z,4.02
2022-12-15T08:41:58.293Z,4.03
2022-12-15T08:44:26.236Z,4.04
2022-12-15T08:46:54.433Z,4.03
2022-12-15T08:49:22.766Z,4.04
2022-12-15T08:51:51.495Z,4.10
2022-12-15T08:54:20.570Z,4.15
2022-12-15T08:56:49.054Z,4.18
2022-12-15T08:59:17.271Z,4.20
2022-12-15T09:01:45.315Z,4.22
2022-12-15T09:04:13.777Z,4.22
2022-12-15T09:06:42.084Z,4.22
2022-12-15T09:09:12.394Z,4.22
2022-12-15T09:11:41.037Z,4.21
2022-12-15T09:14:09.081Z,4.18
2022-12-15T09:16:37.179Z,4.11
2022-12-15T09:19:05.626Z,4.07
2022-12-15T09:21:34.443Z,4.07
2022-12-15T09:24:03.984Z,4.09
2022-12-15T09:26:34.348Z,4.09
2022-12-15T09:29:02.435Z,4.09
2022-12-15T09:31:37.572Z,4.08
2022-12-15T09:34:05.652Z,4.09
2022-12-15T09:36:33.789Z,4.11
2022-12-15T09:39:02.805Z,4.12
2022-12-15T09:41:33.287Z,4.14
2022-12-15T09:44:14.987Z,4.15
2022-12-15T09:47:23.594Z,4.18
2022-12-15T09:49:56.156Z,4.21
2022-12-15T09:52:30.352Z,4.23
2022-12-15T09:54:59.429Z,4.20
2022-12-15T09:57:44.741Z,4.16
2022-12-15T10:00:25.732Z,4.11
2022-12-15T10:03:03.854Z,4.09
2022-12-15T10:06:06.898Z,4.12
2022-12-15T10:08:31.130Z,4.18
2022-12-15T10:11:02.160Z,4.23
2022-12-15T10:13:47.537Z,4.29
2022-12-15T10:16:28.081Z,4.32
2022-12-15T10:19:14.326Z,4.34
2022-12-15T10:21:42.634Z,4.34
2022-12-15T10:24:44.508Z,4.40
2022-12-15T10:27:17.200Z,4.50
2022-12-15T10:29:52.359Z,4.55
2022-12-15T10:32:43.074Z,4.60
2022-12-15T10:35:32.726Z,4.66
2022-12-15T10:38:05.054Z,4.67
2022-12-15T10:40:50.590Z,4.67
2022-12-15T10:43:31.741Z,4.65
2022-12-15T10:46:01.480Z,4.66
2022-12-15T10:48:29.733Z,4.66
2022-12-15T10:51:37.346Z,4.69
2022-12-15T10:54:11.602Z,4.72
2022-12-15T10:57:27.817Z,4.76
2022-12-15T11:00:22.783Z,4.85
2022-12-15T11:02:50.844Z,4.93
2022-12-15T11:05:19.925Z,4.99
2022-12-15T11:07:50.585Z,5.03
2022-12-15T11:10:26.327Z,5.06
2022-12-15T11:13:14.422Z,5.11
2022-12-15T11:15:45.722Z,5.19
2022-12-15T11:18:53.343Z,5.26
2022-12-15T11:21:36.971Z,5.33
2022-12-15T11:24:16.674Z,5.38
2022-12-15T11:27:28.615Z,5.34
2022-12-15T11:30:16.323Z,5.31
2022-12-15T11:33:04.757Z,5.33
2022-12-15T11:35:51.547Z,5.33
2022-12-15T11:38:50.013Z,5.32
2022-12-15T11:41:27.987Z,5.36
2022-12-15T11:44:17.957Z,5.66
2022-12-15T11:47:11.162Z,5.77
2022-12-15T11:50:23.745Z,5.68
2022-12-15T11:53:11.221Z,5.53
2022-12-15T11:56:18.138Z,5.45
2022-12-15T11:59:23.794Z,5.39
2022-12-15T12:02:02.979Z,5.34
2022-12-15T12:04:31.344Z,5.33
2022-12-15T12:07:21.068Z,5.32
2022-12-15T12:10:21.929Z,5.32
2022-12-15T12:13:12.355Z,5.29
2022-12-15T12:15:43.558Z,5.20
2022-12-15T12:18:36.765Z,5.15
2022-12-15T12:21:14.507Z,5.15
2022-12-15T12:24:03.901Z,5.15
2022-12-15T12:26:45.241Z,5.17
2022-12-15T12:29:26.117Z,5.21
2022-12-15T12:31:56.446Z,5.23
2022-12-15T12:34:40.846Z,5.24
2022-12-15T12:37:27.992Z,5.29
2022-12-15T12:40:03.456Z,5.29
2022-12-15T12:42:40.607Z,5.26
2022-12-15T12:45:13.877Z,5.19
2022-12-15T12:47:50.087Z,5.17
2022-12-15T12:50:24.381Z,5.17
2022-12-15T12:53:03.440Z,5.15
2022-12-15T12:55:40.256Z,5.12
2022-12-15T12:58:34.296Z,5.14
2022-12-15T13:01:11.228Z,5.16
2022-12-15T13:03:40.471Z,5.16
2022-12-15T13:06:40.867Z,5.12
2022-12-15T13:09:17.488Z,5.10
2022-12-15T13:11:49.108Z,5.08
2022-12-15T13:14:30.691Z,5.11
2022-12-15T13:17:28.526Z,5.14
2022-12-15T13:19:56.467Z,5.16
2022-12-15T13:22:24.396Z,5.19
2022-12-15T13:24:52.395Z,5.20
2022-12-15T13:27:20.454Z,5.16
2022-12-15T13:30:09.935Z,5.16
2022-12-15T13:32:41.630Z,5.14
2022-12-15T13:35:13.198Z,5.13
2022-12-15T13:37:49.044Z,5.14
2022-12-15T13:40:24.215Z,5.15
2022-12-15T13:43:05.520Z,5.17
2022-12-15T13:45:50.707Z,5.21
2022-12-15T13:48:36.288Z,5.25
2022-12-15T13:51:25.739Z,5.25
2022-12-15T13:54:09.944Z,5.28
2022-12-15T13:56:46.561Z,5.27
2022-12-15T13:59:34.096Z,5.28
2022-12-15T14:02:02.343Z,5.31
2022-12-15T14:04:30.362Z,5.36
2022-12-15T14:07:02.014Z,5.42
2022-12-15T14:09:35.886Z,5.50
2022-12-15T14:12:08.076Z,5.54
2022-12-15T14:14:42.968Z,5.54
2022-12-15T14:17:15.377Z,5.51
2022-12-15T14:19:51.073Z,5.49
2022-12-15T14:22:28.261Z,5.47
2022-12-15T14:25:21.112Z,5.48
2022-12-15T14:27:51.023Z,5.48
2022-12-15T14:30:25.607Z,5.50
2022-12-15T14:33:01.673Z,5.50
2022-12-15T14:35:36.879Z,5.48
2022-12-15T14:38:09.162Z,5.47
2022-12-15T14:40:39.908Z,5.48
2022-12-15T14:43:11.828Z,5.46
2022-12-15T14:45:40.070Z,5.48
2022-12-15T14:51:02.588Z,5.51
2022-12-15T14:53:36.615Z,5.52
2022-12-15T14:56:27.568Z,5.53
2022-12-15T14:59:06.318Z,5.51
2022-12-15T15:01:40.881Z,5.51
2022-12-15T15:04:29.380Z,5.51
2022-12-15T15:07:01.190Z,5.52
2022-12-15T15:09:38.353Z,5.54
2022-12-15T15:12:45.771Z,5.55
2022-12-15T15:15:24.704Z,5.58
2022-12-15T15:18:00.417Z,5.58
2022-12-15T15:20:36.548Z,5.61
2022-12-15T15:23:07.382Z,5.62
2022-12-15T15:25:40.233Z,5.64
2022-12-15T15:28:12.006Z,5.65
2022-12-15T15:30:57.936Z,5.65
2022-12-15T15:33:26.893Z,5.68
2022-12-15T15:36:04.509Z,5.69
2022-12-15T15:38:35.042Z,5.71
2022-12-15T15:41:18.211Z,5.77
2022-12-15T15:43:47.190Z,5.79
2022-12-15T15:46:19.795Z,5.79
2022-12-15T15:48:55.314Z,5.76
2022-12-15T15:51:28.344Z,5.76
2022-12-15T15:54:00.247Z,5.74
2022-12-15T15:56:28.723Z,5.75
2022-12-15T15:58:57.881Z,5.78
2022-12-15T16:01:25.995Z,5.77
2022-12-15T16:03:54.165Z,5.78
2022-12-15T16:06:24.428Z,5.78
2022-12-15T16:08:53.975Z,5.80
2022-12-15T16:11:23.093Z,5.80
2022-12-15T16:13:51.631Z,5.81
2022-12-15T16:16:22.977Z,5.85
2022-12-15T16:18:51.279Z,5.87
2022-12-15T16:21:20.435Z,5.94
2022-12-15T16:23:49.445Z,6.57
2022-12-15T16:26:25.866Z,6.67
2022-12-15T16:28:54.271Z,6.54
2022-12-15T16:31:40.892Z,6.43
2022-12-15T16:34:09.756Z,6.31
2022-12-15T16:36:38.330Z,6.21
2022-12-15T16:39:24.287Z,6.16
2022-12-15T16:41:54.315Z,6.14
2022-12-15T16:44:23.330Z,6.15
2022-12-15T16:46:51.383Z,6.16
2022-12-15T16:49:19.566Z,6.17
2022-12-15T16:51:50.838Z,6.18
2022-12-15T16:54:30.603Z,6.16
2022-12-15T16:57:00.032Z,6.14
2022-12-15T16:59:36.087Z,6.17
2022-12-15T17:02:27.993Z,6.17
2022-12-15T17:04:56.379Z,6.19
2022-12-15T17:07:27.628Z,6.22
2022-12-15T17:09:56.433Z,6.24
2022-12-15T17:12:24.418Z,6.24
2022-12-15T17:14:52.891Z,6.23
2022-12-15T17:17:21.363Z,6.22
2022-12-15T17:20:27.459Z,6.23
2022-12-15T17:22:38.556Z,6.25
2022-12-15T17:25:16.237Z,6.28
2022-12-15T17:27:45.135Z,6.29
2022-12-15T17:30:15.659Z,6.27
2022-12-15T17:32:44.474Z,6.26
2022-12-15T17:35:12.693Z,6.25
2022-12-15T17:37:40.895Z,6.26
2022-12-15T17:40:20.793Z,6.27
2022-12-15T17:42:49.682Z,6.28
2022-12-15T17:45:24.808Z,6.28
2022-12-15T17:47:52.779Z,6.27
2022-12-15T17:50:21.210Z,6.28
2022-12-15T17:52:49.547Z,6.26
2022-12-15T17:55:19.951Z,6.24
2022-12-15T17:57:47.940Z,6.26
2022-12-15T18:00:17.579Z,6.28
2022-12-15T18:02:45.661Z,6.30
2022-12-15T18:05:14.345Z,6.31
2022-12-15T18:07:42.770Z,6.33
2022-12-15T18:10:41.032Z,6.34
2022-12-15T18:13:20.282Z,6.33
2022-12-15T18:15:49.616Z,6.30
2022-12-15T18:18:20.805Z,6.28
2022-12-15T18:20:51.350Z,6.28
2022-12-15T18:23:30.987Z,6.29
2022-12-15T18:26:02.873Z,6.28
2022-12-15T18:28:35.540Z,6.25
2022-12-15T18:31:19.707Z,6.25
2022-12-15T18:33:47.943Z,6.25
2022-12-15T18:36:16.307Z,6.23
2022-12-15T18:38:44.589Z,6.24
2022-12-15T18:41:17.859Z,6.29
2022-12-15T18:43:47.600Z,6.31
2022-12-15T18:46:17.147Z,6.33
2022-12-15T18:48:45.458Z,6.35
2022-12-15T18:51:18.012Z,6.37
2022-12-15T18:53:48.847Z,6.36
2022-12-15T18:56:19.363Z,6.33
2022-12-15T18:58:47.946Z,6.31
2022-12-15T19:01:16.511Z,6.31
2022-12-15T19:03:44.536Z,6.33
2022-12-15T19:06:34.947Z,6.32
2022-12-15T19:09:14.654Z,6.31
2022-12-15T19:12:04.799Z,6.31
2022-12-15T19:14:42.924Z,6.30
2022-12-15T19:17:32.232Z,6.27
2022-12-15T19:20:19.380Z,6.24
2022-12-15T19:22:48.795Z,6.23
2022-12-15T19:25:26.620Z,6.22
2022-12-15T19:27:59.724Z,6.21
2022-12-15T19:30:30.973Z,6.21
2022-12-15T19:32:59.260Z,6.22
2022-12-15T19:35:28.048Z,6.23
2022-12-15T19:37:58.711Z,6.24
2022-12-15T19:40:28.435Z,6.20
2022-12-15T19:42:56.761Z,6.16
2022-12-15T19:45:28.030Z,6.13
2022-12-15T19:47:56.559Z,6.08
2022-12-15T19:50:29.349Z,6.05
2022-12-15T19:53:01.084Z,6.04
2022-12-15T19:55:32.945Z,6.03
2022-12-15T19:58:20.001Z,6.05
2022-12-15T20:00:51.666Z,6.06
2022-12-15T20:03:20.729Z,6.09
2022-12-15T20:05:51.945Z,6.10
2022-12-15T20:08:23.491Z,6.10
2022-12-15T20:10:53.938Z,6.11
2022-12-15T20:13:22.558Z,6.12
2022-12-15T20:15:50.839Z,6.10
2022-12-15T20:18:19.187Z,6.09
2022-12-15T20:20:48.910Z,6.09
2022-12-15T20:23:26.283Z,6.10
2022-12-15T20:25:56.253Z,6.09
2022-12-15T20:28:28.726Z,6.08
2022-12-15T20:30:58.199Z,6.07
2022-12-15T20:33:26.191Z,6.08
2022-12-15T20:35:54.302Z,6.08
2022-12-15T20:38:32.211Z,6.10
2022-12-15T20:41:01.991Z,6.13
2022-12-15T20:43:31.795Z,6.15
2022-12-15T20:46:05.832Z,6.18
2022-12-15T20:48:36.583Z,6.20
2022-12-15T20:51:09.502Z,6.25
2022-12-15T20:53:38.954Z,6.26
2022-12-15T20:56:07.643Z,6.28
2022-12-15T20:58:39.352Z,6.29
2022-12-15T21:01:29.164Z,6.30
2022-12-15T21:03:58.744Z,6.30
2022-12-15T21:06:28.493Z,6.28
2022-12-15T21:08:56.979Z,6.29
2022-12-15T21:11:32.527Z,6.31
2022-12-15T21:14:04.456Z,6.35
2022-12-15T21:16:32.838Z,6.38
2022-12-15T21:19:19.710Z,6.37
2022-12-15T21:21:54.939Z,6.37
2022-12-15T21:24:27.264Z,6.35
2022-12-15T21:26:55.555Z,6.33
2022-12-15T21:29:26.372Z,6.34
2022-12-15T21:31:54.871Z,6.36
2022-12-15T21:34:22.830Z,6.36
2022-12-15T21:36:55.061Z,6.34
2022-12-15T21:39:34.110Z,6.31
2022-12-15T21:42:07.130Z,6.30
2022-12-15T21:44:36.499Z,6.27
2022-12-15T21:47:24.970Z,6.25
2022-12-15T21:49:52.887Z,6.25
2022-12-15T21:52:25.976Z,6.25
2022-12-15T21:54:53.864Z,6.24
2022-12-15T21:57:23.108Z,6.24
2022-12-15T21:59:51.890Z,6.22
2022-12-15T22:02:26.999Z,6.22
2022-12-15T22:04:55.617Z,6.21
2022-12-15T22:07:23.546Z,6.19
2022-12-15T22:09:51.822Z,6.18
2022-12-15T22:12:22.887Z,6.15
2022-12-15T22:14:52.101Z,6.13
2022-12-15T22:17:22.163Z,6.12
2022-12-15T22:19:50.507Z,6.09
2022-12-15T22:22:18.333Z,6.05
2022-12-15T22:24:46.313Z,6.01
2022-12-15T22:27:23.376Z,5.97
2022-12-15T22:29:52.228Z,5.95
2022-12-15T22:32:20.360Z,5.94
2022-12-15T22:34:48.366Z,5.94
2022-12-15T22:37:16.548Z,5.95
2022-12-15T22:39:44.882Z,5.95
2022-12-15T22:42:17.314Z,5.94
2022-12-15T22:44:45.569Z,5.93
2022-12-15T22:47:13.794Z,5.93
2022-12-15T22:49:42.629Z,5.93
2022-12-15T22:52:19.452Z,5.94
2022-12-15T22:54:47.998Z,5.94
2022-12-15T22:57:22.824Z,5.96
2022-12-15T23:00:03.159Z,5.99
2022-12-15T23:02:33.756Z,5.98
2022-12-15T23:05:02.373Z,5.96
2022-12-15T23:07:30.407Z,5.96
2022-12-15T23:10:16.932Z,5.97
2022-12-15T23:12:44.840Z,6.00
2022-12-15T23:15:31.640Z,6.04
2022-12-15T23:17:59.586Z,6.07
2022-12-15T23:20:27.498Z,6.09
2022-12-15T23:22:55.693Z,6.11
2022-12-15T23:25:23.616Z,6.11
2022-12-15T23:27:51.657Z,6.10
2022-12-15T23:30:20.455Z,6.10
2022-12-15T23:32:48.939Z,6.09
2022-12-15T23:35:16.839Z,6.09
2022-12-15T23:37:44.907Z,6.12
2022-12-15T23:40:20.025Z,6.16
2022-12-15T23:42:48.989Z,6.18
2022-12-15T23:45:17.064Z,6.22
2022-12-15T23:47:45.159Z,6.24
2022-12-15T23:50:13.098Z,6.26
2022-12-15T23:52:41.471Z,6.26
2022-12-15T23:55:10.250Z,6.26
2022-12-15T23:57:39.444Z,6.27
